sensor_id;sensor_type;location;lat;lon;timestamp;temperature;humidity
3055;DHT22;1537;52.018;8.542;2024-02-26T00:01:45;3.20;99.90
3055;DHT22;1537;52.018;8.542;2024-02-26T00:05:09;3.20;99.90
3055;DHT22;1537;52.018;8.542;2024-02-26T00:08:32;3.10;99.90
3055;DHT22;1537;52.018;8.542;2024-02-26T00:11:56;3.10;99.90
3055;DHT22;1537;52.018;8.542;2024-02-26T00:15:20;3.00;99.90
3055;DHT22;1537;52.018;8.542;2024-02-26T00:18:45;3.00;99.90
3055;DHT22;1537;52.018;8.542;2024-02-26T00:22:12;3.00;99.90
3055;DHT22;1537;52.018;8.542;2024-02-26T00:25:36;3.10;99.90
3055;DHT22;1537;52.018;8.542;2024-02-26T00:29:00;3.00;99.90
3055;DHT22;1537;52.018;8.542;2024-02-26T00:32:24;3.00;99.90
3055;DHT22;1537;52.018;8.542;2024-02-26T00:35:54;3.00;99.90
3055;DHT22;1537;52.018;8.542;2024-02-26T00:39:19;3.00;99.90
3055;DHT22;1537;52.018;8.542;2024-02-26T00:42:43;3.00;99.90
3055;DHT22;1537;52.018;8.542;2024-02-26T00:46:12;3.00;99.90
3055;DHT22;1537;52.018;8.542;2024-02-26T00:49:36;3.00;99.90
3055;DHT22;1537;52.018;8.542;2024-02-26T00:53:16;3.10;99.90
3055;DHT22;1537;52.018;8.542;2024-02-26T00:56:41;3.10;99.90
3055;DHT22;1537;52.018;8.542;2024-02-26T01:00:06;3.10;99.90
3055;DHT22;1537;52.018;8.542;2024-02-26T01:03:31;3.10;99.90
3055;DHT22;1537;52.018;8.542;2024-02-26T01:06:55;3.10;99.90
3055;DHT22;1537;52.018;8.542;2024-02-26T01:10:23;3.10;99.90
3055;DHT22;1537;52.018;8.542;2024-02-26T01:13:53;3.00;99.90
3055;DHT22;1537;52.018;8.542;2024-02-26T01:17:21;3.00;99.90
3055;DHT22;1537;52.018;8.542;2024-02-26T01:20:47;3.00;99.90
3055;DHT22;1537;52.018;8.542;2024-02-26T01:24:15;3.00;99.90
3055;DHT22;1537;52.018;8.542;2024-02-26T01:27:45;3.10;99.90
3055;DHT22;1537;52.018;8.542;2024-02-26T01:31:10;3.00;99.90
3055;DHT22;1537;52.018;8.542;2024-02-26T01:34:41;3.00;99.90
3055;DHT22;1537;52.018;8.542;2024-02-26T01:38:12;3.00;99.90
3055;DHT22;1537;52.018;8.542;2024-02-26T01:41:46;3.10;99.90
3055;DHT22;1537;52.018;8.542;2024-02-26T01:45:16;3.00;99.90
3055;DHT22;1537;52.018;8.542;2024-02-26T01:48:45;3.00;99.90
3055;DHT22;1537;52.018;8.542;2024-02-26T01:52:12;3.00;99.90
3055;DHT22;1537;52.018;8.542;2024-02-26T01:55:36;3.00;99.90
3055;DHT22;1537;52.018;8.542;2024-02-26T01:59:02;2.90;99.90
3055;DHT22;1537;52.018;8.542;2024-02-26T02:02:28;2.90;99.90
3055;DHT22;1537;52.018;8.542;2024-02-26T02:05:53;2.90;99.90
3055;DHT22;1537;52.018;8.542;2024-02-26T02:09:22;2.90;99.90
3055;DHT22;1537;52.018;8.542;2024-02-26T02:12:47;3.00;99.90
3055;DHT22;1537;52.018;8.542;2024-02-26T02:16:12;3.00;99.90
3055;DHT22;1537;52.018;8.542;2024-02-26T02:19:48;3.00;99.90
3055;DHT22;1537;52.018;8.542;2024-02-26T02:23:23;3.00;99.90
3055;DHT22;1537;52.018;8.542;2024-02-26T02:26:49;3.00;99.90
3055;DHT22;1537;52.018;8.542;2024-02-26T02:30:13;3.10;99.90
3055;DHT22;1537;52.018;8.542;2024-02-26T02:33:38;3.10;99.90
3055;DHT22;1537;52.018;8.542;2024-02-26T02:37:02;3.10;99.90
3055;DHT22;1537;52.018;8.542;2024-02-26T02:40:29;3.10;99.90
3055;DHT22;1537;52.018;8.542;2024-02-26T02:43:54;3.20;99.90
3055;DHT22;1537;52.018;8.542;2024-02-26T02:47:20;3.20;99.90
3055;DHT22;1537;52.018;8.542;2024-02-26T02:50:48;3.30;99.90
3055;DHT22;1537;52.018;8.542;2024-02-26T02:54:12;3.30;99.90
3055;DHT22;1537;52.018;8.542;2024-02-26T02:57:39;3.30;99.90
3055;DHT22;1537;52.018;8.542;2024-02-26T03:01:06;3.30;99.90
3055;DHT22;1537;52.018;8.542;2024-02-26T03:04:30;3.30;99.90
3055;DHT22;1537;52.018;8.542;2024-02-26T03:07:55;3.30;99.90
3055;DHT22;1537;52.018;8.542;2024-02-26T03:11:18;3.30;99.90
3055;DHT22;1537;52.018;8.542;2024-02-26T03:14:48;3.30;99.90
3055;DHT22;1537;52.018;8.542;2024-02-26T03:18:13;3.30;99.90
3055;DHT22;1537;52.018;8.542;2024-02-26T03:21:37;3.40;99.90
3055;DHT22;1537;52.018;8.542;2024-02-26T03:25:01;3.40;99.90
3055;DHT22;1537;52.018;8.542;2024-02-26T03:28:24;3.50;99.90
3055;DHT22;1537;52.018;8.542;2024-02-26T03:31:50;3.50;99.90
3055;DHT22;1537;52.018;8.542;2024-02-26T03:35:14;3.50;99.90
3055;DHT22;1537;52.018;8.542;2024-02-26T03:38:38;3.40;99.90
3055;DHT22;1537;52.018;8.542;2024-02-26T03:42:02;3.30;99.90
3055;DHT22;1537;52.018;8.542;2024-02-26T03:45:27;3.30;99.90
3055;DHT22;1537;52.018;8.542;2024-02-26T03:48:52;3.40;99.90
3055;DHT22;1537;52.018;8.542;2024-02-26T03:52:17;3.50;99.90
3055;DHT22;1537;52.018;8.542;2024-02-26T03:55:41;3.60;99.90
3055;DHT22;1537;52.018;8.542;2024-02-26T03:59:06;3.70;99.90
3055;DHT22;1537;52.018;8.542;2024-02-26T04:02:30;3.80;99.90
3055;DHT22;1537;52.018;8.542;2024-02-26T04:05:55;3.90;99.90
3055;DHT22;1537;52.018;8.542;2024-02-26T04:09:19;4.00;99.90
3055;DHT22;1537;52.018;8.542;2024-02-26T04:12:43;4.00;99.90
3055;DHT22;1537;52.018;8.542;2024-02-26T04:16:07;4.00;99.90
3055;DHT22;1537;52.018;8.542;2024-02-26T04:19:31;4.10;99.90
3055;DHT22;1537;52.018;8.542;2024-02-26T04:22:56;4.10;99.90
3055;DHT22;1537;52.018;8.542;2024-02-26T04:26:20;4.20;99.90
3055;DHT22;1537;52.018;8.542;2024-02-26T04:29:44;4.20;99.90
3055;DHT22;1537;52.018;8.542;2024-02-26T04:33:08;4.20;99.90
3055;DHT22;1537;52.018;8.542;2024-02-26T04:36:32;4.20;99.90
3055;DHT22;1537;52.018;8.542;2024-02-26T04:39:57;4.30;99.90
3055;DHT22;1537;52.018;8.542;2024-02-26T04:43:21;4.30;99.90
3055;DHT22;1537;52.018;8.542;2024-02-26T04:46:45;4.30;99.90
3055;DHT22;1537;52.018;8.542;2024-02-26T04:50:09;4.20;99.90
3055;DHT22;1537;52.018;8.542;2024-02-26T04:53:33;4.20;99.90
3055;DHT22;1537;52.018;8.542;2024-02-26T04:56:58;4.20;99.90
3055;DHT22;1537;52.018;8.542;2024-02-26T05:00:24;4.20;99.90
3055;DHT22;1537;52.018;8.542;2024-02-26T05:03:48;4.20;99.90
3055;DHT22;1537;52.018;8.542;2024-02-26T05:07:14;4.30;99.90
3055;DHT22;1537;52.018;8.542;2024-02-26T05:10:40;4.40;99.90
3055;DHT22;1537;52.018;8.542;2024-02-26T05:14:05;4.40;99.90
3055;DHT22;1537;52.018;8.542;2024-02-26T05:17:30;4.40;99.90
3055;DHT22;1537;52.018;8.542;2024-02-26T05:20:54;4.40;99.90
3055;DHT22;1537;52.018;8.542;2024-02-26T05:24:18;4.40;99.90
3055;DHT22;1537;52.018;8.542;2024-02-26T05:27:45;4.40;99.90
3055;DHT22;1537;52.018;8.542;2024-02-26T05:31:12;4.40;99.90
3055;DHT22;1537;52.018;8.542;2024-02-26T05:34:39;4.40;99.90
3055;DHT22;1537;52.018;8.542;2024-02-26T05:38:04;4.50;99.90
3055;DHT22;1537;52.018;8.542;2024-02-26T05:41:28;4.50;99.90
3055;DHT22;1537;52.018;8.542;2024-02-26T05:44:51;4.50;99.90
3055;DHT22;1537;52.018;8.542;2024-02-26T05:48:17;4.60;99.90
3055;DHT22;1537;52.018;8.542;2024-02-26T05:51:42;4.60;99.90
3055;DHT22;1537;52.018;8.542;2024-02-26T05:55:07;4.50;99.90
3055;DHT22;1537;52.018;8.542;2024-02-26T05:58:31;4.50;99.90
3055;DHT22;1537;52.018;8.542;2024-02-26T06:02:05;4.50;99.90
3055;DHT22;1537;52.018;8.542;2024-02-26T06:05:30;4.40;99.90
3055;DHT22;1537;52.018;8.542;2024-02-26T06:08:54;4.50;99.90
3055;DHT22;1537;52.018;8.542;2024-02-26T06:12:18;4.60;99.90
3055;DHT22;1537;52.018;8.542;2024-02-26T06:15:42;4.60;99.90
3055;DHT22;1537;52.018;8.542;2024-02-26T06:19:06;4.60;99.90
3055;DHT22;1537;52.018;8.542;2024-02-26T06:22:37;4.60;99.90
3055;DHT22;1537;52.018;8.542;2024-02-26T06:26:03;4.60;99.90
3055;DHT22;1537;52.018;8.542;2024-02-26T06:29:28;4.70;99.90
3055;DHT22;1537;52.018;8.542;2024-02-26T06:32:52;4.70;99.90
3055;DHT22;1537;52.018;8.542;2024-02-26T06:36:16;4.70;99.90
3055;DHT22;1537;52.018;8.542;2024-02-26T06:39:42;4.70;99.90
3055;DHT22;1537;52.018;8.542;2024-02-26T06:43:06;4.80;99.90
3055;DHT22;1537;52.018;8.542;2024-02-26T06:46:30;4.90;99.90
3055;DHT22;1537;52.018;8.542;2024-02-26T06:49:54;4.90;99.90
3055;DHT22;1537;52.018;8.542;2024-02-26T06:53:21;4.90;99.90
3055;DHT22;1537;52.018;8.542;2024-02-26T06:56:48;4.80;99.90
3055;DHT22;1537;52.018;8.542;2024-02-26T07:00:14;4.70;99.90
3055;DHT22;1537;52.018;8.542;2024-02-26T07:03:40;4.60;99.90
3055;DHT22;1537;52.018;8.542;2024-02-26T07:07:04;4.60;99.90
3055;DHT22;1537;52.018;8.542;2024-02-26T07:10:28;4.70;99.90
3055;DHT22;1537;52.018;8.542;2024-02-26T07:13:53;4.70;99.90
3055;DHT22;1537;52.018;8.542;2024-02-26T07:17:17;4.80;99.90
3055;DHT22;1537;52.018;8.542;2024-02-26T07:20:41;4.90;99.90
3055;DHT22;1537;52.018;8.542;2024-02-26T07:24:05;4.90;99.90
3055;DHT22;1537;52.018;8.542;2024-02-26T07:27:30;5.00;99.90
3055;DHT22;1537;52.018;8.542;2024-02-26T07:30:55;5.00;99.90
3055;DHT22;1537;52.018;8.542;2024-02-26T07:34:20;5.00;99.90
3055;DHT22;1537;52.018;8.542;2024-02-26T07:37:50;5.00;99.90
3055;DHT22;1537;52.018;8.542;2024-02-26T07:41:14;5.00;99.90
3055;DHT22;1537;52.018;8.542;2024-02-26T07:44:40;5.10;99.90
3055;DHT22;1537;52.018;8.542;2024-02-26T07:48:08;5.10;99.90
3055;DHT22;1537;52.018;8.542;2024-02-26T07:51:31;5.20;99.90
3055;DHT22;1537;52.018;8.542;2024-02-26T07:54:55;5.20;99.90
3055;DHT22;1537;52.018;8.542;2024-02-26T07:58:19;5.10;99.90
3055;DHT22;1537;52.018;8.542;2024-02-26T08:01:43;5.20;99.90
3055;DHT22;1537;52.018;8.542;2024-02-26T08:05:16;5.20;99.90
3055;DHT22;1537;52.018;8.542;2024-02-26T08:08:41;5.20;99.90
3055;DHT22;1537;52.018;8.542;2024-02-26T08:12:06;5.30;99.90
3055;DHT22;1537;52.018;8.542;2024-02-26T08:15:34;5.40;99.90
3055;DHT22;1537;52.018;8.542;2024-02-26T08:18:59;5.50;99.90
3055;DHT22;1537;52.018;8.542;2024-02-26T08:22:25;5.60;99.90
3055;DHT22;1537;52.018;8.542;2024-02-26T08:25:50;5.60;99.90
3055;DHT22;1537;52.018;8.542;2024-02-26T08:29:14;5.70;99.90
3055;DHT22;1537;52.018;8.542;2024-02-26T08:32:38;5.80;99.90
3055;DHT22;1537;52.018;8.542;2024-02-26T08:36:04;5.80;99.90
3055;DHT22;1537;52.018;8.542;2024-02-26T08:39:32;5.80;99.90
3055;DHT22;1537;52.018;8.542;2024-02-26T08:42:57;5.90;99.90
3055;DHT22;1537;52.018;8.542;2024-02-26T08:46:29;6.00;99.90
3055;DHT22;1537;52.018;8.542;2024-02-26T08:49:56;6.10;99.90
3055;DHT22;1537;52.018;8.542;2024-02-26T08:53:21;6.20;99.90
3055;DHT22;1537;52.018;8.542;2024-02-26T08:56:59;6.20;99.90
3055;DHT22;1537;52.018;8.542;2024-02-26T09:00:23;6.30;99.90
3055;DHT22;1537;52.018;8.542;2024-02-26T09:03:46;6.40;99.90
3055;DHT22;1537;52.018;8.542;2024-02-26T09:07:10;6.50;99.90
3055;DHT22;1537;52.018;8.542;2024-02-26T09:10:34;6.50;99.90
3055;DHT22;1537;52.018;8.542;2024-02-26T09:13:59;6.60;99.90
3055;DHT22;1537;52.018;8.542;2024-02-26T09:17:23;6.70;99.90
3055;DHT22;1537;52.018;8.542;2024-02-26T09:20:47;6.70;99.90
3055;DHT22;1537;52.018;8.542;2024-02-26T09:24:10;6.70;99.90
3055;DHT22;1537;52.018;8.542;2024-02-26T09:27:34;6.80;99.90
3055;DHT22;1537;52.018;8.542;2024-02-26T09:31:04;6.80;99.90
3055;DHT22;1537;52.018;8.542;2024-02-26T09:34:28;6.80;99.90
3055;DHT22;1537;52.018;8.542;2024-02-26T09:37:52;6.80;99.90
3055;DHT22;1537;52.018;8.542;2024-02-26T09:41:16;6.80;99.90
3055;DHT22;1537;52.018;8.542;2024-02-26T09:44:41;6.80;99.90
3055;DHT22;1537;52.018;8.542;2024-02-26T09:48:08;6.60;99.90
3055;DHT22;1537;52.018;8.542;2024-02-26T09:51:35;6.60;99.90
3055;DHT22;1537;52.018;8.542;2024-02-26T09:54:59;6.70;99.90
3055;DHT22;1537;52.018;8.542;2024-02-26T09:58:24;6.80;99.90
3055;DHT22;1537;52.018;8.542;2024-02-26T10:01:49;6.90;99.90
3055;DHT22;1537;52.018;8.542;2024-02-26T10:05:17;7.00;99.90
3055;DHT22;1537;52.018;8.542;2024-02-26T10:08:42;7.10;99.90
3055;DHT22;1537;52.018;8.542;2024-02-26T10:12:08;7.20;99.90
3055;DHT22;1537;52.018;8.542;2024-02-26T10:15:33;7.30;99.90
3055;DHT22;1537;52.018;8.542;2024-02-26T10:18:57;7.20;99.90
3055;DHT22;1537;52.018;8.542;2024-02-26T10:22:23;7.20;99.90
3055;DHT22;1537;52.018;8.542;2024-02-26T10:25:53;7.20;99.90
3055;DHT22;1537;52.018;8.542;2024-02-26T10:29:18;7.20;99.90
3055;DHT22;1537;52.018;8.542;2024-02-26T10:32:43;7.20;99.90
3055;DHT22;1537;52.018;8.542;2024-02-26T10:36:07;7.30;99.90
3055;DHT22;1537;52.018;8.542;2024-02-26T10:39:32;7.30;99.90
3055;DHT22;1537;52.018;8.542;2024-02-26T10:42:58;7.40;99.90
3055;DHT22;1537;52.018;8.542;2024-02-26T10:46:21;7.30;99.90
3055;DHT22;1537;52.018;8.542;2024-02-26T10:49:46;7.30;99.90
3055;DHT22;1537;52.018;8.542;2024-02-26T10:53:15;7.40;99.90
3055;DHT22;1537;52.018;8.542;2024-02-26T10:56:42;7.40;99.90
3055;DHT22;1537;52.018;8.542;2024-02-26T11:00:07;7.40;99.90
3055;DHT22;1537;52.018;8.542;2024-02-26T11:03:33;7.40;99.90
3055;DHT22;1537;52.018;8.542;2024-02-26T11:06:59;7.50;99.90
3055;DHT22;1537;52.018;8.542;2024-02-26T11:10:26;7.50;99.90
3055;DHT22;1537;52.018;8.542;2024-02-26T11:13:55;7.60;99.90
3055;DHT22;1537;52.018;8.542;2024-02-26T11:17:21;7.60;99.90
3055;DHT22;1537;52.018;8.542;2024-02-26T11:20:44;7.70;99.90
3055;DHT22;1537;52.018;8.542;2024-02-26T11:24:11;7.70;99.90
3055;DHT22;1537;52.018;8.542;2024-02-26T11:27:46;7.70;99.90
3055;DHT22;1537;52.018;8.542;2024-02-26T11:31:12;7.60;99.90
3055;DHT22;1537;52.018;8.542;2024-02-26T11:34:37;7.60;99.90
3055;DHT22;1537;52.018;8.542;2024-02-26T11:38:02;7.70;99.90
3055;DHT22;1537;52.018;8.542;2024-02-26T11:41:27;7.70;99.90
3055;DHT22;1537;52.018;8.542;2024-02-26T11:44:52;7.70;99.90
3055;DHT22;1537;52.018;8.542;2024-02-26T11:48:20;7.70;99.90
3055;DHT22;1537;52.018;8.542;2024-02-26T11:51:50;7.60;99.90
3055;DHT22;1537;52.018;8.542;2024-02-26T11:55:31;7.60;99.90
3055;DHT22;1537;52.018;8.542;2024-02-26T11:59:01;7.50;99.90
3055;DHT22;1537;52.018;8.542;2024-02-26T12:02:44;7.50;99.90
3055;DHT22;1537;52.018;8.542;2024-02-26T12:06:10;7.50;99.90
3055;DHT22;1537;52.018;8.542;2024-02-26T12:09:36;7.60;99.90
3055;DHT22;1537;52.018;8.542;2024-02-26T12:13:00;7.60;99.90
3055;DHT22;1537;52.018;8.542;2024-02-26T12:16:35;7.70;99.90
3055;DHT22;1537;52.018;8.542;2024-02-26T12:20:08;7.70;99.90
3055;DHT22;1537;52.018;8.542;2024-02-26T12:23:34;7.80;99.90
3055;DHT22;1537;52.018;8.542;2024-02-26T12:26:57;7.70;99.90
3055;DHT22;1537;52.018;8.542;2024-02-26T12:30:21;7.60;99.90
3055;DHT22;1537;52.018;8.542;2024-02-26T12:33:45;7.50;99.90
3055;DHT22;1537;52.018;8.542;2024-02-26T12:37:10;7.50;99.90
3055;DHT22;1537;52.018;8.542;2024-02-26T12:40:35;7.50;99.90
3055;DHT22;1537;52.018;8.542;2024-02-26T12:43:59;7.50;99.90
3055;DHT22;1537;52.018;8.542;2024-02-26T12:47:23;7.40;99.90
3055;DHT22;1537;52.018;8.542;2024-02-26T12:50:46;7.40;99.90
3055;DHT22;1537;52.018;8.542;2024-02-26T12:54:11;7.40;99.90
3055;DHT22;1537;52.018;8.542;2024-02-26T12:57:40;7.30;99.90
3055;DHT22;1537;52.018;8.542;2024-02-26T13:01:06;7.30;99.90
3055;DHT22;1537;52.018;8.542;2024-02-26T13:04:31;7.30;99.90
3055;DHT22;1537;52.018;8.542;2024-02-26T13:07:56;7.30;99.90
3055;DHT22;1537;52.018;8.542;2024-02-26T13:11:20;7.40;99.90
3055;DHT22;1537;52.018;8.542;2024-02-26T13:14:47;7.50;99.90
3055;DHT22;1537;52.018;8.542;2024-02-26T13:18:13;7.50;99.90
3055;DHT22;1537;52.018;8.542;2024-02-26T13:21:37;7.40;99.90
3055;DHT22;1537;52.018;8.542;2024-02-26T13:25:01;7.40;99.90
3055;DHT22;1537;52.018;8.542;2024-02-26T13:28:25;7.40;99.90
3055;DHT22;1537;52.018;8.542;2024-02-26T13:31:55;7.40;99.90
3055;DHT22;1537;52.018;8.542;2024-02-26T13:35:19;7.40;99.90
3055;DHT22;1537;52.018;8.542;2024-02-26T13:38:51;7.50;99.90
3055;DHT22;1537;52.018;8.542;2024-02-26T13:42:15;7.50;99.90
3055;DHT22;1537;52.018;8.542;2024-02-26T13:45:39;7.40;99.90
3055;DHT22;1537;52.018;8.542;2024-02-26T13:49:04;7.40;99.90
3055;DHT22;1537;52.018;8.542;2024-02-26T13:52:28;7.40;99.90
3055;DHT22;1537;52.018;8.542;2024-02-26T13:55:54;7.40;99.90
3055;DHT22;1537;52.018;8.542;2024-02-26T13:59:18;7.50;99.90
3055;DHT22;1537;52.018;8.542;2024-02-26T14:02:41;7.50;99.90
3055;DHT22;1537;52.018;8.542;2024-02-26T14:06:06;7.50;99.90
3055;DHT22;1537;52.018;8.542;2024-02-26T14:09:30;7.50;99.90
3055;DHT22;1537;52.018;8.542;2024-02-26T14:13:08;7.40;99.90
3055;DHT22;1537;52.018;8.542;2024-02-26T14:16:31;7.40;99.90
3055;DHT22;1537;52.018;8.542;2024-02-26T14:19:55;7.40;99.90
3055;DHT22;1537;52.018;8.542;2024-02-26T14:23:20;7.40;99.90
3055;DHT22;1537;52.018;8.542;2024-02-26T14:26:43;7.40;99.90
3055;DHT22;1537;52.018;8.542;2024-02-26T14:30:08;7.40;99.90
3055;DHT22;1537;52.018;8.542;2024-02-26T14:33:33;7.40;99.90
3055;DHT22;1537;52.018;8.542;2024-02-26T14:36:57;7.40;99.90
3055;DHT22;1537;52.018;8.542;2024-02-26T14:40:22;7.40;99.90
3055;DHT22;1537;52.018;8.542;2024-02-26T14:43:45;7.40;99.90
3055;DHT22;1537;52.018;8.542;2024-02-26T14:47:09;7.50;99.90
3055;DHT22;1537;52.018;8.542;2024-02-26T14:50:33;7.50;99.90
3055;DHT22;1537;52.018;8.542;2024-02-26T14:53:56;7.50;99.90
3055;DHT22;1537;52.018;8.542;2024-02-26T14:57:24;7.50;99.90
3055;DHT22;1537;52.018;8.542;2024-02-26T15:00:49;7.50;99.90
3055;DHT22;1537;52.018;8.542;2024-02-26T15:04:13;7.50;99.90
3055;DHT22;1537;52.018;8.542;2024-02-26T15:07:37;7.50;99.90
3055;DHT22;1537;52.018;8.542;2024-02-26T15:11:02;7.50;99.90
3055;DHT22;1537;52.018;8.542;2024-02-26T15:14:28;7.60;99.90
3055;DHT22;1537;52.018;8.542;2024-02-26T15:17:52;7.60;99.90
3055;DHT22;1537;52.018;8.542;2024-02-26T15:21:16;7.60;99.90
3055;DHT22;1537;52.018;8.542;2024-02-26T15:24:39;7.60;99.90
3055;DHT22;1537;52.018;8.542;2024-02-26T15:28:03;7.60;99.90
3055;DHT22;1537;52.018;8.542;2024-02-26T15:31:30;7.60;99.90
3055;DHT22;1537;52.018;8.542;2024-02-26T15:34:54;7.60;99.90
3055;DHT22;1537;52.018;8.542;2024-02-26T15:38:18;7.60;99.90
3055;DHT22;1537;52.018;8.542;2024-02-26T15:41:41;7.60;99.90
3055;DHT22;1537;52.018;8.542;2024-02-26T15:45:06;7.60;99.90
3055;DHT22;1537;52.018;8.542;2024-02-26T15:48:32;7.60;99.90
3055;DHT22;1537;52.018;8.542;2024-02-26T15:51:56;7.60;99.90
3055;DHT22;1537;52.018;8.542;2024-02-26T15:55:20;7.60;99.90
3055;DHT22;1537;52.018;8.542;2024-02-26T15:58:44;7.70;99.90
3055;DHT22;1537;52.018;8.542;2024-02-26T16:02:07;7.60;99.90
3055;DHT22;1537;52.018;8.542;2024-02-26T16:05:32;7.60;99.90
3055;DHT22;1537;52.018;8.542;2024-02-26T16:08:56;7.60;99.90
3055;DHT22;1537;52.018;8.542;2024-02-26T16:12:24;7.60;99.90
3055;DHT22;1537;52.018;8.542;2024-02-26T16:15:53;7.60;99.90
3055;DHT22;1537;52.018;8.542;2024-02-26T16:19:20;7.60;99.90
3055;DHT22;1537;52.018;8.542;2024-02-26T16:22:46;7.60;99.90
3055;DHT22;1537;52.018;8.542;2024-02-26T16:26:10;7.60;99.90
3055;DHT22;1537;52.018;8.542;2024-02-26T16:29:34;7.60;99.90
3055;DHT22;1537;52.018;8.542;2024-02-26T16:32:58;7.60;99.90
3055;DHT22;1537;52.018;8.542;2024-02-26T16:36:21;7.60;99.90
3055;DHT22;1537;52.018;8.542;2024-02-26T16:39:46;7.60;99.90
3055;DHT22;1537;52.018;8.542;2024-02-26T16:43:10;7.50;99.90
3055;DHT22;1537;52.018;8.542;2024-02-26T16:46:37;7.60;99.90
3055;DHT22;1537;52.018;8.542;2024-02-26T16:50:00;7.60;99.90
3055;DHT22;1537;52.018;8.542;2024-02-26T16:53:25;7.60;99.90
3055;DHT22;1537;52.018;8.542;2024-02-26T16:56:50;7.50;99.90
3055;DHT22;1537;52.018;8.542;2024-02-26T17:00:15;7.50;99.90
3055;DHT22;1537;52.018;8.542;2024-02-26T17:03:39;7.50;99.90
3055;DHT22;1537;52.018;8.542;2024-02-26T17:07:03;7.50;99.90
3055;DHT22;1537;52.018;8.542;2024-02-26T17:10:26;7.50;99.90
3055;DHT22;1537;52.018;8.542;2024-02-26T17:13:51;7.50;99.90
3055;DHT22;1537;52.018;8.542;2024-02-26T17:17:15;7.40;99.90
3055;DHT22;1537;52.018;8.542;2024-02-26T17:20:38;7.50;99.90
3055;DHT22;1537;52.018;8.542;2024-02-26T17:24:02;7.50;99.90
3055;DHT22;1537;52.018;8.542;2024-02-26T17:27:26;7.50;99.90
3055;DHT22;1537;52.018;8.542;2024-02-26T17:30:51;7.50;99.90
3055;DHT22;1537;52.018;8.542;2024-02-26T17:34:15;7.50;99.90
3055;DHT22;1537;52.018;8.542;2024-02-26T17:37:39;7.50;99.90
3055;DHT22;1537;52.018;8.542;2024-02-26T17:41:03;7.50;99.90
3055;DHT22;1537;52.018;8.542;2024-02-26T17:44:33;7.50;99.90
3055;DHT22;1537;52.018;8.542;2024-02-26T17:47:59;7.50;99.90
3055;DHT22;1537;52.018;8.542;2024-02-26T17:51:23;7.50;99.90
3055;DHT22;1537;52.018;8.542;2024-02-26T17:54:46;7.50;99.90
3055;DHT22;1537;52.018;8.542;2024-02-26T17:58:10;7.50;99.90
3055;DHT22;1537;52.018;8.542;2024-02-26T18:01:36;7.50;99.90
3055;DHT22;1537;52.018;8.542;2024-02-26T18:05:01;7.50;99.90
3055;DHT22;1537;52.018;8.542;2024-02-26T18:08:26;7.50;99.90
3055;DHT22;1537;52.018;8.542;2024-02-26T18:11:54;7.50;99.90
3055;DHT22;1537;52.018;8.542;2024-02-26T18:15:18;7.50;99.90
3055;DHT22;1537;52.018;8.542;2024-02-26T18:18:42;7.50;99.90
3055;DHT22;1537;52.018;8.542;2024-02-26T18:22:10;7.50;99.90
3055;DHT22;1537;52.018;8.542;2024-02-26T18:25:37;7.40;99.90
3055;DHT22;1537;52.018;8.542;2024-02-26T18:29:03;7.40;99.90
3055;DHT22;1537;52.018;8.542;2024-02-26T18:32:30;7.40;99.90
3055;DHT22;1537;52.018;8.542;2024-02-26T18:35:53;7.40;99.90
3055;DHT22;1537;52.018;8.542;2024-02-26T18:39:18;7.30;99.90
3055;DHT22;1537;52.018;8.542;2024-02-26T18:42:43;7.30;99.90
3055;DHT22;1537;52.018;8.542;2024-02-26T18:46:06;7.30;99.90
3055;DHT22;1537;52.018;8.542;2024-02-26T18:49:30;7.30;99.90
3055;DHT22;1537;52.018;8.542;2024-02-26T18:52:55;7.30;99.90
3055;DHT22;1537;52.018;8.542;2024-02-26T18:56:25;7.20;99.90
3055;DHT22;1537;52.018;8.542;2024-02-26T18:59:51;7.20;99.90
3055;DHT22;1537;52.018;8.542;2024-02-26T19:03:14;7.20;99.90
3055;DHT22;1537;52.018;8.542;2024-02-26T19:06:38;7.20;99.90
3055;DHT22;1537;52.018;8.542;2024-02-26T19:10:03;7.20;99.90
3055;DHT22;1537;52.018;8.542;2024-02-26T19:13:36;7.20;99.90
3055;DHT22;1537;52.018;8.542;2024-02-26T19:17:01;7.10;99.90
3055;DHT22;1537;52.018;8.542;2024-02-26T19:20:24;7.10;99.90
3055;DHT22;1537;52.018;8.542;2024-02-26T19:23:48;7.10;99.90
3055;DHT22;1537;52.018;8.542;2024-02-26T19:27:12;7.10;99.90
3055;DHT22;1537;52.018;8.542;2024-02-26T19:30:37;7.10;99.90
3055;DHT22;1537;52.018;8.542;2024-02-26T19:34:00;7.10;99.90
3055;DHT22;1537;52.018;8.542;2024-02-26T19:37:24;7.10;99.90
3055;DHT22;1537;52.018;8.542;2024-02-26T19:40:49;7.10;99.90
3055;DHT22;1537;52.018;8.542;2024-02-26T19:44:13;7.00;99.90
3055;DHT22;1537;52.018;8.542;2024-02-26T19:47:38;7.00;99.90
3055;DHT22;1537;52.018;8.542;2024-02-26T19:51:03;7.00;99.90
3055;DHT22;1537;52.018;8.542;2024-02-26T19:54:27;7.00;99.90
3055;DHT22;1537;52.018;8.542;2024-02-26T19:57:51;7.00;99.90
3055;DHT22;1537;52.018;8.542;2024-02-26T20:01:17;7.00;99.90
3055;DHT22;1537;52.018;8.542;2024-02-26T20:04:42;7.00;99.90
3055;DHT22;1537;52.018;8.542;2024-02-26T20:08:06;6.90;99.90
3055;DHT22;1537;52.018;8.542;2024-02-26T20:11:30;6.90;99.90
3055;DHT22;1537;52.018;8.542;2024-02-26T20:14:53;6.90;99.90
3055;DHT22;1537;52.018;8.542;2024-02-26T20:18:17;6.80;99.90
3055;DHT22;1537;52.018;8.542;2024-02-26T20:21:42;6.80;99.90
3055;DHT22;1537;52.018;8.542;2024-02-26T20:25:07;6.80;99.90
3055;DHT22;1537;52.018;8.542;2024-02-26T20:28:30;6.80;99.90
3055;DHT22;1537;52.018;8.542;2024-02-26T20:31:56;6.70;99.90
3055;DHT22;1537;52.018;8.542;2024-02-26T20:35:20;6.70;99.90
3055;DHT22;1537;52.018;8.542;2024-02-26T20:38:45;6.70;99.90
3055;DHT22;1537;52.018;8.542;2024-02-26T20:42:10;6.60;99.90
3055;DHT22;1537;52.018;8.542;2024-02-26T20:45:34;6.60;99.90
3055;DHT22;1537;52.018;8.542;2024-02-26T20:48:58;6.60;99.90
3055;DHT22;1537;52.018;8.542;2024-02-26T20:52:22;6.50;99.90
3055;DHT22;1537;52.018;8.542;2024-02-26T20:55:47;6.50;99.90
3055;DHT22;1537;52.018;8.542;2024-02-26T20:59:11;6.50;99.90
3055;DHT22;1537;52.018;8.542;2024-02-26T21:02:35;6.40;99.90
3055;DHT22;1537;52.018;8.542;2024-02-26T21:06:02;6.40;99.90
3055;DHT22;1537;52.018;8.542;2024-02-26T21:09:26;6.40;99.90
3055;DHT22;1537;52.018;8.542;2024-02-26T21:12:52;6.30;99.90
3055;DHT22;1537;52.018;8.542;2024-02-26T21:16:16;6.30;99.90
3055;DHT22;1537;52.018;8.542;2024-02-26T21:19:40;6.20;99.90
3055;DHT22;1537;52.018;8.542;2024-02-26T21:23:04;6.20;99.90
3055;DHT22;1537;52.018;8.542;2024-02-26T21:26:28;6.20;99.90
3055;DHT22;1537;52.018;8.542;2024-02-26T21:29:53;6.20;99.90
3055;DHT22;1537;52.018;8.542;2024-02-26T21:33:16;6.10;99.90
3055;DHT22;1537;52.018;8.542;2024-02-26T21:36:40;6.20;99.90
3055;DHT22;1537;52.018;8.542;2024-02-26T21:40:05;6.10;99.90
3055;DHT22;1537;52.018;8.542;2024-02-26T21:43:30;6.10;99.90
3055;DHT22;1537;52.018;8.542;2024-02-26T21:47:00;6.10;99.90
3055;DHT22;1537;52.018;8.542;2024-02-26T21:50:25;6.00;99.90
3055;DHT22;1537;52.018;8.542;2024-02-26T21:53:48;6.00;99.90
3055;DHT22;1537;52.018;8.542;2024-02-26T21:57:12;6.00;99.90
3055;DHT22;1537;52.018;8.542;2024-02-26T22:00:36;6.00;99.90
3055;DHT22;1537;52.018;8.542;2024-02-26T22:04:01;6.00;99.90
3055;DHT22;1537;52.018;8.542;2024-02-26T22:07:25;5.90;99.90
3055;DHT22;1537;52.018;8.542;2024-02-26T22:10:50;5.90;99.90
3055;DHT22;1537;52.018;8.542;2024-02-26T22:14:14;5.90;99.90
3055;DHT22;1537;52.018;8.542;2024-02-26T22:17:38;5.80;99.90
3055;DHT22;1537;52.018;8.542;2024-02-26T22:21:05;5.80;99.90
3055;DHT22;1537;52.018;8.542;2024-02-26T22:24:30;5.80;99.90
3055;DHT22;1537;52.018;8.542;2024-02-26T22:27:54;5.80;99.90
3055;DHT22;1537;52.018;8.542;2024-02-26T22:31:18;5.80;99.90
3055;DHT22;1537;52.018;8.542;2024-02-26T22:34:41;5.70;99.90
3055;DHT22;1537;52.018;8.542;2024-02-26T22:38:06;5.70;99.90
3055;DHT22;1537;52.018;8.542;2024-02-26T22:41:31;5.70;99.90